Aérodrome :
LOGIN :

S'inscrire | Disclaimer

   EN    FR    IT 

 










Légende :    VFR   VFR Marginal   IFR   IFR Intensif   IFR Très Intensif
Visi : 
Plafond : 
>= 8 km
>= 3000ft
5 à 8 km
1000 à 3000 ft
1500m à 5 km
500 à 1000 ft
800 à 1500m
200 à 500 ft
< 800m
< 200 ft
Symboles :   Orages  Brouillard  Fortes neiges  Fortes précipitations  Vent > 20 kt
SIGMETs :   Divers  Orages  Givrage  Turbulence  Onde Orograph.  Cendres Volcan.






- Altitude de l'aérodrome : 280 ft
- Code IATA : FAE


EKVG - Vagar

DERNIER METAR :
  • 191820Z AUTO 25009KT 200V300 2300 DZ BR OVC002/// 09/08 Q1018

METARs EXPIRÉS :
  • 191750Z AUTO 26011KT 210V290 3600 DZ BR OVC003/// 09/08 Q1018
  • 191720Z AUTO 26008G19KT 180V320 4200 -RA OVC004/// 09/08 Q1018
  • 191650Z AUTO VRB06G19KT 8000 -RA OVC003/// 09/08 Q1018
  • 191620Z AUTO VRB03KT 6000 -RA OVC003/// 08/08 Q1018
  • 191550Z AUTO VRB04KT 5000 -RA OVC003/// 09/08 Q1018

TAF AMD TAF EKVG
Valide du 19 à 15h jusqu'au 19 à 21h UTC


191506Z 1915/1921 20015KT 5000 BKN002
TEMPO 1915/1921 23022G40KT 1200 -RADZ BR BKN005



MET'MAP, la Météo Aéronautique d'un coup d'oeil ! - Copyright ORBIFLY Décembre 2007 - Disclaimer

ORBIFLY MET'MAP TEAM :

Programmation & Développement : Alexandra Zaïnal
Sur une idée originale de : Baudouin d'Aumeries
Assistance à la programmation : Marc-Olivier Méhu
Soutien technique & logistique : Manuel Goepfert

Contact : metmap@orbifly.com




SOURCES & CREDITS :

   NOAA